sensor_id;sensor_type;location;lat;lon;timestamp;pressure;altitude;pressure_sealevel;temperature;humidity
63700;BME280;49845;47.130;142.766;2022-12-31T00:00:18;100620.44;;;-9.85;77.57
63700;BME280;49845;47.130;142.766;2022-12-31T00:02:50;100632.88;;;-9.51;77.21
63700;BME280;49845;47.130;142.766;2022-12-31T00:05:21;100622.06;;;-9.37;77.28
63700;BME280;49845;47.130;142.766;2022-12-31T00:07:53;100632.09;;;-9.14;77.00
63700;BME280;49845;47.130;142.766;2022-12-31T00:10:24;100612.63;;;-9.15;76.32
63700;BME280;49845;47.130;142.766;2022-12-31T00:12:54;100638.81;;;-8.89;76.10
63700;BME280;49845;47.130;142.766;2022-12-31T00:15:42;100614.78;;;-8.82;75.87
63700;BME280;49845;47.130;142.766;2022-12-31T00:18:14;100628.34;;;-8.69;75.51
63700;BME280;49845;47.130;142.766;2022-12-31T00:20:45;100620.75;;;-8.69;74.75
63700;BME280;49845;47.130;142.766;2022-12-31T00:23:17;100622.34;;;-8.71;75.18
63700;BME280;49845;47.130;142.766;2022-12-31T00:25:48;100618.09;;;-8.45;76.40
63700;BME280;49845;47.130;142.766;2022-12-31T00:28:18;100521.19;;;-8.81;76.56
63700;BME280;49845;47.130;142.766;2022-12-31T00:30:51;100609.91;;;-8.41;75.83
63700;BME280;49845;47.130;142.766;2022-12-31T00:33:23;100617.69;;;-8.25;75.55
63700;BME280;49845;47.130;142.766;2022-12-31T00:36:12;100498.22;;;-8.71;75.34
63700;BME280;49845;47.130;142.766;2022-12-31T00:38:46;100595.63;;;-7.99;74.56
63700;BME280;49845;47.130;142.766;2022-12-31T00:41:18;100605.84;;;-7.84;74.30
63700;BME280;49845;47.130;142.766;2022-12-31T00:43:50;100596.19;;;-7.63;73.84
63700;BME280;49845;47.130;142.766;2022-12-31T00:46:21;100596.69;;;-7.41;72.71
63700;BME280;49845;47.130;142.766;2022-12-31T00:48:52;100537.06;;;-7.47;72.26
63700;BME280;49845;47.130;142.766;2022-12-31T00:51:40;100569.72;;;-7.10;71.80
63700;BME280;49845;47.130;142.766;2022-12-31T00:54:29;100567.47;;;-7.06;70.94
63700;BME280;49845;47.130;142.766;2022-12-31T00:57:00;100553.97;;;-7.05;70.52
63700;BME280;49845;47.130;142.766;2022-12-31T00:59:30;100555.56;;;-6.92;70.92
63700;BME280;49845;47.130;142.766;2022-12-31T01:02:01;100542.94;;;-6.90;71.71
63700;BME280;49845;47.130;142.766;2022-12-31T01:04:34;100550.47;;;-6.77;71.58
63700;BME280;49845;47.130;142.766;2022-12-31T01:07:07;100536.53;;;-6.69;71.80
63700;BME280;49845;47.130;142.766;2022-12-31T01:09:39;100529.59;;;-6.57;71.96
63700;BME280;49845;47.130;142.766;2022-12-31T01:12:13;100515.97;;;-6.59;71.70
63700;BME280;49845;47.130;142.766;2022-12-31T01:14:51;100533.28;;;-6.52;70.93
63700;BME280;49845;47.130;142.766;2022-12-31T01:17:22;100488.44;;;-6.66;70.94
63700;BME280;49845;47.130;142.766;2022-12-31T01:19:52;100530.81;;;-6.35;71.08
63700;BME280;49845;47.130;142.766;2022-12-31T01:22:26;100517.50;;;-6.31;69.90
63700;BME280;49845;47.130;142.766;2022-12-31T01:25:01;100471.78;;;-6.30;70.16
63700;BME280;49845;47.130;142.766;2022-12-31T01:27:31;100511.84;;;-5.78;70.76
63700;BME280;49845;47.130;142.766;2022-12-31T01:30:02;100512.16;;;-5.72;69.23
63700;BME280;49845;47.130;142.766;2022-12-31T01:32:33;100503.75;;;-5.71;69.32
63700;BME280;49845;47.130;142.766;2022-12-31T01:35:04;100503.91;;;-5.51;69.91
63700;BME280;49845;47.130;142.766;2022-12-31T01:37:35;100504.50;;;-5.23;69.63
63700;BME280;49845;47.130;142.766;2022-12-31T01:40:24;100484.88;;;-5.07;69.22
63700;BME280;49845;47.130;142.766;2022-12-31T01:42:54;100494.38;;;-4.87;69.34
63700;BME280;49845;47.130;142.766;2022-12-31T01:45:25;100474.44;;;-4.95;69.54
63700;BME280;49845;47.130;142.766;2022-12-31T01:47:57;100489.59;;;-4.81;70.05
63700;BME280;49845;47.130;142.766;2022-12-31T01:50:30;100486.69;;;-4.70;70.14
63700;BME280;49845;47.130;142.766;2022-12-31T01:53:04;100503.31;;;-4.61;68.70
63700;BME280;49845;47.130;142.766;2022-12-31T01:55:45;100459.00;;;-4.81;67.69
63700;BME280;49845;47.130;142.766;2022-12-31T01:58:20;100499.53;;;-4.51;67.65
63700;BME280;49845;47.130;142.766;2022-12-31T02:01:12;100485.56;;;-4.41;67.10
63700;BME280;49845;47.130;142.766;2022-12-31T02:06:38;100484.63;;;-4.06;68.35
63700;BME280;49845;47.130;142.766;2022-12-31T02:09:12;100481.72;;;-3.76;68.78
63700;BME280;49845;47.130;142.766;2022-12-31T02:11:45;100459.84;;;-3.70;69.09
63700;BME280;49845;47.130;142.766;2022-12-31T02:14:17;100459.31;;;-3.62;69.59
63700;BME280;49845;47.130;142.766;2022-12-31T02:16:53;100463.69;;;-3.40;70.09
63700;BME280;49845;47.130;142.766;2022-12-31T02:19:44;100436.53;;;-3.38;69.82
63700;BME280;49845;47.130;142.766;2022-12-31T02:22:29;100447.66;;;-3.17;69.81
63700;BME280;49845;47.130;142.766;2022-12-31T02:25:27;100404.63;;;-3.27;69.48
63700;BME280;49845;47.130;142.766;2022-12-31T02:28:17;100441.81;;;-2.93;69.19
63700;BME280;49845;47.130;142.766;2022-12-31T02:31:10;100418.22;;;-2.86;69.08
63700;BME280;49845;47.130;142.766;2022-12-31T02:33:46;100413.78;;;-2.90;69.30
63700;BME280;49845;47.130;142.766;2022-12-31T02:36:24;100337.94;;;-3.33;69.30
63700;BME280;49845;47.130;142.766;2022-12-31T02:39:00;100396.44;;;-2.97;69.11
63700;BME280;49845;47.130;142.766;2022-12-31T02:41:32;100387.81;;;-3.01;69.16
63700;BME280;49845;47.130;142.766;2022-12-31T02:44:26;100369.50;;;-3.12;69.14
63700;BME280;49845;47.130;142.766;2022-12-31T02:47:16;100374.84;;;-3.06;69.11
63700;BME280;49845;47.130;142.766;2022-12-31T02:50:12;100380.72;;;-2.86;69.22
63700;BME280;49845;47.130;142.766;2022-12-31T02:52:56;100367.44;;;-2.77;69.10
63700;BME280;49845;47.130;142.766;2022-12-31T02:55:33;100369.78;;;-2.61;69.19
63700;BME280;49845;47.130;142.766;2022-12-31T02:58:10;100360.09;;;-2.45;68.93
63700;BME280;49845;47.130;142.766;2022-12-31T03:00:50;100361.25;;;-2.14;69.12
63700;BME280;49845;47.130;142.766;2022-12-31T03:03:43;100365.72;;;-1.85;68.72
63700;BME280;49845;47.130;142.766;2022-12-31T03:06:39;100374.66;;;-1.74;68.10
63700;BME280;49845;47.130;142.766;2022-12-31T03:09:12;100293.03;;;-2.12;66.95
63700;BME280;49845;47.130;142.766;2022-12-31T03:11:45;100223.03;;;-2.63;67.58
63700;BME280;49845;47.130;142.766;2022-12-31T03:14:36;100349.59;;;-2.06;65.90
63700;BME280;49845;47.130;142.766;2022-12-31T03:17:12;100361.03;;;-2.21;66.77
63700;BME280;49845;47.130;142.766;2022-12-31T03:20:05;100340.09;;;-2.33;66.57
63700;BME280;49845;47.130;142.766;2022-12-31T03:22:53;100345.03;;;-2.38;66.78
63700;BME280;49845;47.130;142.766;2022-12-31T03:25:23;100350.34;;;-2.33;67.39
63700;BME280;49845;47.130;142.766;2022-12-31T03:28:09;100349.69;;;-2.27;67.49
63700;BME280;49845;47.130;142.766;2022-12-31T03:30:41;100340.09;;;-2.33;67.55
63700;BME280;49845;47.130;142.766;2022-12-31T03:33:13;100307.31;;;-2.43;67.35
63700;BME280;49845;47.130;142.766;2022-12-31T03:35:46;100348.81;;;-2.28;67.07
63700;BME280;49845;47.130;142.766;2022-12-31T03:38:21;100342.66;;;-2.33;67.25
63700;BME280;49845;47.130;142.766;2022-12-31T03:40:52;100331.75;;;-2.51;67.39
63700;BME280;49845;47.130;142.766;2022-12-31T03:43:23;100337.81;;;-2.49;67.70
63700;BME280;49845;47.130;142.766;2022-12-31T03:45:55;100334.19;;;-2.54;67.93
63700;BME280;49845;47.130;142.766;2022-12-31T03:48:27;100328.94;;;-2.57;68.45
63700;BME280;49845;47.130;142.766;2022-12-31T03:51:03;100330.91;;;-2.50;68.85
63700;BME280;49845;47.130;142.766;2022-12-31T03:53:34;100325.97;;;-2.46;68.60
63700;BME280;49845;47.130;142.766;2022-12-31T03:56:05;100326.84;;;-2.45;68.83
63700;BME280;49845;47.130;142.766;2022-12-31T03:58:36;100324.41;;;-2.42;68.63
63700;BME280;49845;47.130;142.766;2022-12-31T04:01:07;100304.41;;;-2.52;69.04
63700;BME280;49845;47.130;142.766;2022-12-31T04:03:37;100267.94;;;-2.71;69.33
63700;BME280;49845;47.130;142.766;2022-12-31T04:06:10;100315.22;;;-2.37;69.74
63700;BME280;49845;47.130;142.766;2022-12-31T04:08:42;100304.16;;;-2.36;69.43
63700;BME280;49845;47.130;142.766;2022-12-31T04:11:12;100302.63;;;-2.31;68.85
63700;BME280;49845;47.130;142.766;2022-12-31T04:13:47;100304.00;;;-2.17;69.56
63700;BME280;49845;47.130;142.766;2022-12-31T04:16:18;100308.41;;;-2.12;69.24
63700;BME280;49845;47.130;142.766;2022-12-31T04:18:49;100301.34;;;-2.20;69.18
63700;BME280;49845;47.130;142.766;2022-12-31T04:21:21;100289.47;;;-2.42;68.76
63700;BME280;49845;47.130;142.766;2022-12-31T04:23:59;100296.72;;;-2.52;68.92
63700;BME280;49845;47.130;142.766;2022-12-31T04:26:30;100292.63;;;-2.71;69.53
63700;BME280;49845;47.130;142.766;2022-12-31T04:29:01;100290.72;;;-2.77;69.66
63700;BME280;49845;47.130;142.766;2022-12-31T04:31:31;100300.50;;;-2.89;69.81
63700;BME280;49845;47.130;142.766;2022-12-31T04:34:02;100281.28;;;-3.00;70.57
63700;BME280;49845;47.130;142.766;2022-12-31T04:36:51;100298.63;;;-2.93;70.15
63700;BME280;49845;47.130;142.766;2022-12-31T04:39:38;100274.78;;;-3.15;70.91
63700;BME280;49845;47.130;142.766;2022-12-31T04:42:09;100282.69;;;-3.09;71.05
63700;BME280;49845;47.130;142.766;2022-12-31T04:44:39;100285.66;;;-2.98;71.32
63700;BME280;49845;47.130;142.766;2022-12-31T04:47:10;100287.81;;;-2.86;71.64
63700;BME280;49845;47.130;142.766;2022-12-31T04:49:49;100288.84;;;-2.81;71.45
63700;BME280;49845;47.130;142.766;2022-12-31T04:52:22;100283.63;;;-2.84;71.21
63700;BME280;49845;47.130;142.766;2022-12-31T04:54:52;100273.41;;;-2.84;71.23
63700;BME280;49845;47.130;142.766;2022-12-31T04:57:25;100298.13;;;-2.61;71.24
63700;BME280;49845;47.130;142.766;2022-12-31T04:59:56;100281.06;;;-2.62;71.66
63700;BME280;49845;47.130;142.766;2022-12-31T05:02:28;100293.97;;;-2.58;71.77
63700;BME280;49845;47.130;142.766;2022-12-31T05:05:00;100265.38;;;-2.71;71.74
63700;BME280;49845;47.130;142.766;2022-12-31T05:10:21;100212.06;;;-3.07;71.26
63700;BME280;49845;47.130;142.766;2022-12-31T05:15:41;100265.72;;;-2.62;72.04
63700;BME280;49845;47.130;142.766;2022-12-31T05:18:13;100262.22;;;-2.64;71.54
63700;BME280;49845;47.130;142.766;2022-12-31T05:20:43;100289.28;;;-2.46;71.73
63700;BME280;49845;47.130;142.766;2022-12-31T05:23:17;100277.44;;;-2.44;71.69
63700;BME280;49845;47.130;142.766;2022-12-31T05:25:47;100267.19;;;-2.44;71.44
63700;BME280;49845;47.130;142.766;2022-12-31T05:28:18;100275.94;;;-2.38;70.82
63700;BME280;49845;47.130;142.766;2022-12-31T05:30:50;100221.28;;;-2.64;71.14
63700;BME280;49845;47.130;142.766;2022-12-31T05:33:37;100270.28;;;-2.29;71.27
63700;BME280;49845;47.130;142.766;2022-12-31T05:36:08;100268.22;;;-2.39;70.77
63700;BME280;49845;47.130;142.766;2022-12-31T05:38:57;100288.38;;;-2.24;71.13
63700;BME280;49845;47.130;142.766;2022-12-31T05:41:28;100261.03;;;-2.49;71.00
63700;BME280;49845;47.130;142.766;2022-12-31T05:43:58;100277.25;;;-2.49;70.35
63700;BME280;49845;47.130;142.766;2022-12-31T05:46:29;100276.50;;;-2.46;70.93
63700;BME280;49845;47.130;142.766;2022-12-31T05:49:00;100283.34;;;-2.45;70.82
63700;BME280;49845;47.130;142.766;2022-12-31T05:51:30;100278.03;;;-2.51;70.61
63700;BME280;49845;47.130;142.766;2022-12-31T05:54:03;100278.03;;;-2.51;71.02
63700;BME280;49845;47.130;142.766;2022-12-31T05:56:34;100277.00;;;-2.56;71.19
63700;BME280;49845;47.130;142.766;2022-12-31T05:59:04;100268.22;;;-2.63;71.14
63700;BME280;49845;47.130;142.766;2022-12-31T06:01:35;100248.59;;;-2.87;70.58
63700;BME280;49845;47.130;142.766;2022-12-31T06:04:06;100273.25;;;-2.87;70.70
63700;BME280;49845;47.130;142.766;2022-12-31T06:06:36;100253.84;;;-3.05;70.73
63700;BME280;49845;47.130;142.766;2022-12-31T06:09:09;100260.72;;;-3.04;71.56
63700;BME280;49845;47.130;142.766;2022-12-31T06:11:56;100253.63;;;-3.11;71.46
63700;BME280;49845;47.130;142.766;2022-12-31T06:14:26;100267.25;;;-3.12;71.69
63700;BME280;49845;47.130;142.766;2022-12-31T06:16:57;100265.59;;;-3.10;72.07
63700;BME280;49845;47.130;142.766;2022-12-31T06:19:28;100195.28;;;-3.66;72.17
63700;BME280;49845;47.130;142.766;2022-12-31T06:21:59;100267.34;;;-3.09;72.33
63700;BME280;49845;47.130;142.766;2022-12-31T06:24:31;100270.72;;;-3.10;72.31
63700;BME280;49845;47.130;142.766;2022-12-31T06:27:02;100258.38;;;-3.20;72.00
63700;BME280;49845;47.130;142.766;2022-12-31T06:29:33;100265.06;;;-3.23;72.43
63700;BME280;49845;47.130;142.766;2022-12-31T06:32:06;100268.59;;;-3.20;72.56
63700;BME280;49845;47.130;142.766;2022-12-31T06:34:39;100263.28;;;-3.26;73.03
63700;BME280;49845;47.130;142.766;2022-12-31T06:37:12;100264.06;;;-3.27;73.44
63700;BME280;49845;47.130;142.766;2022-12-31T06:39:44;100269.13;;;-3.29;73.86
63700;BME280;49845;47.130;142.766;2022-12-31T06:42:15;100233.38;;;-3.50;74.00
63700;BME280;49845;47.130;142.766;2022-12-31T06:44:45;100261.22;;;-3.35;73.90
63700;BME280;49845;47.130;142.766;2022-12-31T06:47:16;100258.16;;;-3.47;74.23
63700;BME280;49845;47.130;142.766;2022-12-31T06:49:46;100263.06;;;-3.53;74.35
63700;BME280;49845;47.130;142.766;2022-12-31T06:52:17;100255.09;;;-3.61;74.64
63700;BME280;49845;47.130;142.766;2022-12-31T06:54:50;100243.50;;;-3.74;75.14
63700;BME280;49845;47.130;142.766;2022-12-31T06:57:22;100258.19;;;-3.68;75.30
63700;BME280;49845;47.130;142.766;2022-12-31T06:59:53;100214.34;;;-4.00;75.32
63700;BME280;49845;47.130;142.766;2022-12-31T07:02:34;100244.94;;;-3.80;76.11
63700;BME280;49845;47.130;142.766;2022-12-31T07:05:33;100237.94;;;-3.84;76.21
63700;BME280;49845;47.130;142.766;2022-12-31T07:08:16;100221.31;;;-3.96;76.38
63700;BME280;49845;47.130;142.766;2022-12-31T07:11:13;100242.50;;;-3.77;76.40
63700;BME280;49845;47.130;142.766;2022-12-31T07:14:01;100192.06;;;-4.04;76.58
63700;BME280;49845;47.130;142.766;2022-12-31T07:16:45;100164.84;;;-4.24;76.14
63700;BME280;49845;47.130;142.766;2022-12-31T07:19:28;100245.88;;;-3.78;76.28
63700;BME280;49845;47.130;142.766;2022-12-31T07:22:03;100223.06;;;-3.95;76.52
63700;BME280;49845;47.130;142.766;2022-12-31T07:24:35;100235.66;;;-3.78;77.15
63700;BME280;49845;47.130;142.766;2022-12-31T07:27:34;100235.09;;;-3.71;77.97
63700;BME280;49845;47.130;142.766;2022-12-31T07:30:13;100191.25;;;-4.03;77.87
63700;BME280;49845;47.130;142.766;2022-12-31T07:33:07;100228.81;;;-3.79;77.93
63700;BME280;49845;47.130;142.766;2022-12-31T07:36:04;100228.66;;;-3.82;77.92
63700;BME280;49845;47.130;142.766;2022-12-31T07:39:00;100229.22;;;-3.90;77.60
63700;BME280;49845;47.130;142.766;2022-12-31T07:41:43;100106.16;;;-4.66;77.59
63700;BME280;49845;47.130;142.766;2022-12-31T07:44:31;100191.81;;;-4.31;77.47
63700;BME280;49845;47.130;142.766;2022-12-31T07:47:07;100220.25;;;-4.22;77.80
63700;BME280;49845;47.130;142.766;2022-12-31T07:49:43;100197.53;;;-4.16;78.10
63700;BME280;49845;47.130;142.766;2022-12-31T07:55:04;100215.88;;;-4.24;78.62
63700;BME280;49845;47.130;142.766;2022-12-31T07:57:39;100221.56;;;-4.31;78.79
63700;BME280;49845;47.130;142.766;2022-12-31T08:00:15;100189.59;;;-4.62;78.49
63700;BME280;49845;47.130;142.766;2022-12-31T08:03:16;100229.94;;;-4.53;78.75
63700;BME280;49845;47.130;142.766;2022-12-31T08:09:02;100222.91;;;-4.59;79.24
63700;BME280;49845;47.130;142.766;2022-12-31T08:11:40;100217.28;;;-4.71;79.18
63700;BME280;49845;47.130;142.766;2022-12-31T08:14:30;100207.06;;;-4.91;79.05
63700;BME280;49845;47.130;142.766;2022-12-31T08:17:10;100219.28;;;-4.84;79.32
63700;BME280;49845;47.130;142.766;2022-12-31T08:19:41;100234.41;;;-4.87;78.99
63700;BME280;49845;47.130;142.766;2022-12-31T08:22:31;100214.06;;;-5.05;78.67
63700;BME280;49845;47.130;142.766;2022-12-31T08:25:31;100204.06;;;-5.20;78.63
63700;BME280;49845;47.130;142.766;2022-12-31T08:28:11;100138.91;;;-5.52;79.28
63700;BME280;49845;47.130;142.766;2022-12-31T08:31:03;100131.34;;;-5.50;79.54
63700;BME280;49845;47.130;142.766;2022-12-31T08:33:42;100206.22;;;-5.09;79.36
63700;BME280;49845;47.130;142.766;2022-12-31T08:36:25;100212.94;;;-5.11;79.93
63700;BME280;49845;47.130;142.766;2022-12-31T08:39:26;100207.69;;;-5.14;80.10
63700;BME280;49845;47.130;142.766;2022-12-31T08:42:02;100209.31;;;-5.16;80.25
63700;BME280;49845;47.130;142.766;2022-12-31T08:44:42;100172.66;;;-5.38;80.45
63700;BME280;49845;47.130;142.766;2022-12-31T08:47:27;100197.09;;;-5.24;80.54
63700;BME280;49845;47.130;142.766;2022-12-31T08:50:13;100095.09;;;-5.82;80.93
63700;BME280;49845;47.130;142.766;2022-12-31T08:52:44;100207.69;;;-5.14;80.91
63700;BME280;49845;47.130;142.766;2022-12-31T08:58:14;100200.13;;;-5.13;81.51
63700;BME280;49845;47.130;142.766;2022-12-31T09:00:54;100194.03;;;-5.16;81.55
63700;BME280;49845;47.130;142.766;2022-12-31T09:03:34;100199.91;;;-5.17;81.97
63700;BME280;49845;47.130;142.766;2022-12-31T09:06:19;100196.50;;;-5.18;82.36
63700;BME280;49845;47.130;142.766;2022-12-31T09:09:15;100158.72;;;-5.46;82.56
63700;BME280;49845;47.130;142.766;2022-12-31T09:11:55;100190.91;;;-5.29;82.57
63700;BME280;49845;47.130;142.766;2022-12-31T09:14:48;100192.16;;;-5.38;82.58
63700;BME280;49845;47.130;142.766;2022-12-31T09:17:44;100194.94;;;-5.34;82.67
63700;BME280;49845;47.130;142.766;2022-12-31T09:20:20;100184.56;;;-5.37;82.68
63700;BME280;49845;47.130;142.766;2022-12-31T09:23:12;100176.53;;;-5.46;82.49
63700;BME280;49845;47.130;142.766;2022-12-31T09:25:50;100189.69;;;-5.37;83.11
63700;BME280;49845;47.130;142.766;2022-12-31T09:28:36;100161.66;;;-5.56;83.51
63700;BME280;49845;47.130;142.766;2022-12-31T09:31:13;100183.13;;;-5.32;84.05
63700;BME280;49845;47.130;142.766;2022-12-31T09:33:50;100131.88;;;-5.57;84.70
63700;BME280;49845;47.130;142.766;2022-12-31T09:36:29;100193.88;;;-5.20;84.99
63700;BME280;49845;47.130;142.766;2022-12-31T09:39:08;100168.69;;;-5.13;85.55
63700;BME280;49845;47.130;142.766;2022-12-31T09:42:03;100168.81;;;-5.10;85.85
63700;BME280;49845;47.130;142.766;2022-12-31T09:44:59;100164.38;;;-5.14;85.67
63700;BME280;49845;47.130;142.766;2022-12-31T09:54:14;100067.97;;;-5.64;86.77
63700;BME280;49845;47.130;142.766;2022-12-31T09:57:24;100048.66;;;-5.78;86.72
63700;BME280;49845;47.130;142.766;2022-12-31T10:00:01;100146.00;;;-5.27;87.50
63700;BME280;49845;47.130;142.766;2022-12-31T10:02:49;100147.75;;;-5.26;87.89
63700;BME280;49845;47.130;142.766;2022-12-31T10:05:39;100134.50;;;-5.18;88.36
63700;BME280;49845;47.130;142.766;2022-12-31T10:08:12;100136.91;;;-5.02;88.40
63700;BME280;49845;47.130;142.766;2022-12-31T10:10:53;100121.78;;;-4.99;88.90
63700;BME280;49845;47.130;142.766;2022-12-31T10:13:42;100109.06;;;-4.97;88.67
63700;BME280;49845;47.130;142.766;2022-12-31T10:16:40;100131.38;;;-4.72;88.94
63700;BME280;49845;47.130;142.766;2022-12-31T10:19:30;100087.09;;;-4.95;88.14
63700;BME280;49845;47.130;142.766;2022-12-31T10:22:21;100010.56;;;-5.37;88.11
63700;BME280;49845;47.130;142.766;2022-12-31T10:25:20;100062.06;;;-5.04;87.77
63700;BME280;49845;47.130;142.766;2022-12-31T10:28:17;100118.06;;;-4.86;87.21
63700;BME280;49845;47.130;142.766;2022-12-31T10:31:02;100079.66;;;-5.10;86.72
63700;BME280;49845;47.130;142.766;2022-12-31T10:33:42;100067.97;;;-5.25;86.40
63700;BME280;49845;47.130;142.766;2022-12-31T10:36:19;99964.56;;;-6.00;86.53
63700;BME280;49845;47.130;142.766;2022-12-31T10:39:02;100098.53;;;-5.25;86.73
63700;BME280;49845;47.130;142.766;2022-12-31T10:42:10;100107.00;;;-5.26;87.08
63700;BME280;49845;47.130;142.766;2022-12-31T10:54:57;100107.66;;;-4.91;88.19
63700;BME280;49845;47.130;142.766;2022-12-31T10:58:41;100112.06;;;-4.87;88.25
63700;BME280;49845;47.130;142.766;2022-12-31T11:01:21;100095.66;;;-4.93;88.00
63700;BME280;49845;47.130;142.766;2022-12-31T11:04:25;100098.25;;;-4.92;88.09
63700;BME280;49845;47.130;142.766;2022-12-31T11:07:29;100100.28;;;-5.04;87.56
63700;BME280;49845;47.130;142.766;2022-12-31T11:13:50;100096.00;;;-5.05;87.50
63700;BME280;49845;47.130;142.766;2022-12-31T11:16:51;100097.22;;;-5.16;87.20
63700;BME280;49845;47.130;142.766;2022-12-31T11:19:32;100093.44;;;-5.25;87.34
63700;BME280;49845;47.130;142.766;2022-12-31T11:22:41;100092.38;;;-5.10;87.73
63700;BME280;49845;47.130;142.766;2022-12-31T11:25:42;100088.47;;;-5.02;88.38
63700;BME280;49845;47.130;142.766;2022-12-31T11:28:40;100061.06;;;-5.08;88.96
63700;BME280;49845;47.130;142.766;2022-12-31T11:31:34;100013.91;;;-5.38;88.65
63700;BME280;49845;47.130;142.766;2022-12-31T11:34:48;100077.09;;;-5.10;88.59
63700;BME280;49845;47.130;142.766;2022-12-31T11:37:32;100095.78;;;-4.90;88.88
63700;BME280;49845;47.130;142.766;2022-12-31T11:40:23;100068.63;;;-5.09;88.04
63700;BME280;49845;47.130;142.766;2022-12-31T11:43:02;100055.00;;;-5.11;88.06
63700;BME280;49845;47.130;142.766;2022-12-31T11:49:13;100042.41;;;-5.07;87.65
63700;BME280;49845;47.130;142.766;2022-12-31T11:52:07;100061.94;;;-5.07;87.51
63700;BME280;49845;47.130;142.766;2022-12-31T11:55:08;100024.03;;;-5.40;87.02
63700;BME280;49845;47.130;142.766;2022-12-31T11:57:49;100041.84;;;-5.40;87.35
63700;BME280;49845;47.130;142.766;2022-12-31T12:03:31;100061.03;;;-5.29;87.96
63700;BME280;49845;47.130;142.766;2022-12-31T12:06:07;100071.59;;;-5.20;88.13
63700;BME280;49845;47.130;142.766;2022-12-31T12:08:42;100062.34;;;-5.17;87.92
63700;BME280;49845;47.130;142.766;2022-12-31T12:11:17;99944.84;;;-5.85;87.83
63700;BME280;49845;47.130;142.766;2022-12-31T12:16:45;100055.75;;;-4.93;88.26
63700;BME280;49845;47.130;142.766;2022-12-31T12:19:40;100054.41;;;-4.85;87.79
63700;BME280;49845;47.130;142.766;2022-12-31T12:22:24;100063.91;;;-4.81;87.49
63700;BME280;49845;47.130;142.766;2022-12-31T12:25:18;100049.81;;;-4.72;86.82
63700;BME280;49845;47.130;142.766;2022-12-31T12:28:25;100028.31;;;-4.58;86.18
63700;BME280;49845;47.130;142.766;2022-12-31T12:31:22;100028.63;;;-4.71;84.66
63700;BME280;49845;47.130;142.766;2022-12-31T12:34:23;100025.69;;;-4.81;83.76
63700;BME280;49845;47.130;142.766;2022-12-31T12:37:27;100013.38;;;-4.91;83.30
63700;BME280;49845;47.130;142.766;2022-12-31T12:40:04;100015.97;;;-5.10;82.14
63700;BME280;49845;47.130;142.766;2022-12-31T12:42:59;100003.53;;;-5.24;81.70
63700;BME280;49845;47.130;142.766;2022-12-31T12:45:45;100007.97;;;-5.39;80.82
63700;BME280;49845;47.130;142.766;2022-12-31T12:48:33;100008.91;;;-5.56;80.38
63700;BME280;49845;47.130;142.766;2022-12-31T12:51:17;99951.19;;;-5.96;80.38
63700;BME280;49845;47.130;142.766;2022-12-31T12:54:16;100002.72;;;-5.81;80.06
63700;BME280;49845;47.130;142.766;2022-12-31T12:57:19;100010.13;;;-5.86;79.87
63700;BME280;49845;47.130;142.766;2022-12-31T13:00:21;100004.69;;;-6.13;78.87
63700;BME280;49845;47.130;142.766;2022-12-31T13:07:00;99944.31;;;-6.90;79.20
63700;BME280;49845;47.130;142.766;2022-12-31T13:09:56;99958.81;;;-6.87;79.08
63700;BME280;49845;47.130;142.766;2022-12-31T13:12:48;100003.25;;;-6.79;78.61
63700;BME280;49845;47.130;142.766;2022-12-31T13:16:17;100001.19;;;-6.86;78.87
63700;BME280;49845;47.130;142.766;2022-12-31T13:19:01;100005.00;;;-6.78;79.52
63700;BME280;49845;47.130;142.766;2022-12-31T13:21:52;100015.66;;;-6.85;79.04
63700;BME280;49845;47.130;142.766;2022-12-31T13:24:58;99997.28;;;-6.98;79.32
63700;BME280;49845;47.130;142.766;2022-12-31T13:27:39;100009.03;;;-7.00;79.48
63700;BME280;49845;47.130;142.766;2022-12-31T13:30:31;100010.59;;;-7.02;79.59
63700;BME280;49845;47.130;142.766;2022-12-31T13:33:43;99956.56;;;-7.33;79.60
63700;BME280;49845;47.130;142.766;2022-12-31T13:36:30;99871.00;;;-7.87;79.34
63700;BME280;49845;47.130;142.766;2022-12-31T13:39:27;100000.97;;;-7.25;79.44
63700;BME280;49845;47.130;142.766;2022-12-31T13:42:13;99996.81;;;-7.41;79.79
63700;BME280;49845;47.130;142.766;2022-12-31T13:44:53;99998.44;;;-7.42;80.05
63700;BME280;49845;47.130;142.766;2022-12-31T13:47:45;99981.63;;;-7.40;80.55
63700;BME280;49845;47.130;142.766;2022-12-31T13:50:27;99980.19;;;-7.34;81.40
63700;BME280;49845;47.130;142.766;2022-12-31T13:53:48;99972.25;;;-7.24;81.77
63700;BME280;49845;47.130;142.766;2022-12-31T13:56:32;99977.66;;;-7.18;81.61
63700;BME280;49845;47.130;142.766;2022-12-31T13:59:19;99979.22;;;-7.20;81.43
63700;BME280;49845;47.130;142.766;2022-12-31T14:02:32;99953.69;;;-7.23;81.76
63700;BME280;49845;47.130;142.766;2022-12-31T14:05:17;99960.34;;;-7.25;81.22
63700;BME280;49845;47.130;142.766;2022-12-31T14:08:10;99961.03;;;-7.46;81.65
63700;BME280;49845;47.130;142.766;2022-12-31T14:10:52;99934.97;;;-7.76;81.91
63700;BME280;49845;47.130;142.766;2022-12-31T14:13:51;99952.66;;;-7.77;82.73
63700;BME280;49845;47.130;142.766;2022-12-31T14:16:43;99954.31;;;-7.78;83.88
63700;BME280;49845;47.130;142.766;2022-12-31T14:19:38;99946.75;;;-7.76;84.62
63700;BME280;49845;47.130;142.766;2022-12-31T14:22:47;99951.06;;;-7.75;84.89
63700;BME280;49845;47.130;142.766;2022-12-31T14:25:52;99951.13;;;-7.74;85.11
63700;BME280;49845;47.130;142.766;2022-12-31T14:28:37;99946.28;;;-7.69;85.81
63700;BME280;49845;47.130;142.766;2022-12-31T14:31:22;99948.50;;;-7.59;86.26
63700;BME280;49845;47.130;142.766;2022-12-31T14:34:14;99938.19;;;-7.62;86.08